Palermo-Boccadifalco Airport

Jump to: basic info | weather | frequencies | runways | comments

Related pages: nearby airports | nearby navaids | notams | map

Basic information (top)

Codes: LICP
Location: lon 38.110802, lat 13.313300, elev 345 ft / 105 m msl
Status: medium_airport
Scheduled airline service: no
Links: Wikipedia Mobile

Weather (top)

Current conditions for Falcone–Borsellino Airport 11nm (21km) WNW (rec'd 2015/01/28 02:20Z):

LICJ 280220Z 18006KT 150V220 9999 SCT028 10/05 Q1011

Airport forecast for Falcone–Borsellino Airport 11nm (21km) WNW (rec'd 2015/01/27 00:22Z):

TAF LICJ 272300Z 2800/2824 33010KT 9999 SCT030 
      TEMPO 2809/2818 4000 SHRA 
      BECMG 2810/2812 02015G25KT

Frequencies (top)

Verify before use: may be inaccurate or out of date.

AFIS: 122.1 MHz (AFIS)
APP: 120.2 MHz (RAISI APP)

Runways (top)

17/35: 4,016 x 148 ft (1,224 x 45 m) — paved — not lighted — threshold 17 displaced 935 ft (285 m) — threshold 35 displaced 738 ft (225 m)

Latest comments (top)

No comments yet for Palermo-Boccadifalco Airport

More... (top)

See also NOTAMs and nearby airports and navaids, or visit the Palermo-Boccadifalco Airport page at the main OurAirports website..